sensor_id;sensor_type;location;lat;lon;timestamp;P1;durP1;ratioP1;P2;durP2;ratioP2
81396;SDS011;70852;49.908;8.126;2024-03-07T00:00:31;24.98;;;11.77;;
81396;SDS011;70852;49.908;8.126;2024-03-07T00:02:59;27.42;;;11.65;;
81396;SDS011;70852;49.908;8.126;2024-03-07T00:05:25;26.65;;;11.93;;
81396;SDS011;70852;49.908;8.126;2024-03-07T00:07:51;25.02;;;11.93;;
81396;SDS011;70852;49.908;8.126;2024-03-07T00:10:17;25.17;;;11.27;;
81396;SDS011;70852;49.908;8.126;2024-03-07T00:12:48;26.17;;;12.07;;
81396;SDS011;70852;49.908;8.126;2024-03-07T00:15:13;26.10;;;11.27;;
81396;SDS011;70852;49.908;8.126;2024-03-07T00:17:42;26.95;;;11.00;;
81396;SDS011;70852;49.908;8.126;2024-03-07T00:20:10;25.23;;;10.55;;
81396;SDS011;70852;49.908;8.126;2024-03-07T00:22:44;27.65;;;12.77;;
81396;SDS011;70852;49.908;8.126;2024-03-07T00:25:09;26.88;;;12.07;;
81396;SDS011;70852;49.908;8.126;2024-03-07T00:30:10;20.63;;;10.25;;
81396;SDS011;70852;49.908;8.126;2024-03-07T00:32:47;21.60;;;10.68;;
81396;SDS011;70852;49.908;8.126;2024-03-07T00:35:14;24.73;;;11.10;;
81396;SDS011;70852;49.908;8.126;2024-03-07T00:37:40;25.92;;;10.93;;
81396;SDS011;70852;49.908;8.126;2024-03-07T00:40:06;26.45;;;11.80;;
81396;SDS011;70852;49.908;8.126;2024-03-07T00:42:32;23.85;;;10.57;;
81396;SDS011;70852;49.908;8.126;2024-03-07T00:45:00;25.20;;;10.90;;
81396;SDS011;70852;49.908;8.126;2024-03-07T00:47:29;22.25;;;11.15;;
81396;SDS011;70852;49.908;8.126;2024-03-07T00:49:54;23.77;;;10.45;;
81396;SDS011;70852;49.908;8.126;2024-03-07T00:52:22;26.42;;;11.68;;
81396;SDS011;70852;49.908;8.126;2024-03-07T00:54:47;24.48;;;10.73;;
81396;SDS011;70852;49.908;8.126;2024-03-07T00:57:12;24.65;;;11.10;;
81396;SDS011;70852;49.908;8.126;2024-03-07T00:59:40;22.55;;;10.68;;
81396;SDS011;70852;49.908;8.126;2024-03-07T01:02:08;23.20;;;11.10;;
81396;SDS011;70852;49.908;8.126;2024-03-07T01:04:35;26.83;;;11.80;;
81396;SDS011;70852;49.908;8.126;2024-03-07T01:07:01;22.80;;;10.73;;
81396;SDS011;70852;49.908;8.126;2024-03-07T01:09:26;22.10;;;10.70;;
81396;SDS011;70852;49.908;8.126;2024-03-07T01:11:54;26.10;;;11.07;;
81396;SDS011;70852;49.908;8.126;2024-03-07T01:14:24;24.98;;;11.43;;
81396;SDS011;70852;49.908;8.126;2024-03-07T01:16:49;25.50;;;11.15;;
81396;SDS011;70852;49.908;8.126;2024-03-07T01:19:17;24.05;;;11.20;;
81396;SDS011;70852;49.908;8.126;2024-03-07T01:21:45;27.83;;;11.43;;
81396;SDS011;70852;49.908;8.126;2024-03-07T01:24:10;28.90;;;11.55;;
81396;SDS011;70852;49.908;8.126;2024-03-07T01:26:42;25.10;;;10.90;;
81396;SDS011;70852;49.908;8.126;2024-03-07T01:29:08;30.30;;;11.30;;
81396;SDS011;70852;49.908;8.126;2024-03-07T01:31:35;26.85;;;11.80;;
81396;SDS011;70852;49.908;8.126;2024-03-07T01:34:01;29.48;;;11.93;;
81396;SDS011;70852;49.908;8.126;2024-03-07T01:36:28;24.25;;;10.85;;
81396;SDS011;70852;49.908;8.126;2024-03-07T01:38:58;26.33;;;11.40;;
81396;SDS011;70852;49.908;8.126;2024-03-07T01:41:23;26.20;;;11.00;;
81396;SDS011;70852;49.908;8.126;2024-03-07T01:43:49;26.17;;;11.55;;
81396;SDS011;70852;49.908;8.126;2024-03-07T01:46:17;24.73;;;10.48;;
81396;SDS011;70852;49.908;8.126;2024-03-07T01:48:42;25.83;;;11.15;;
81396;SDS011;70852;49.908;8.126;2024-03-07T01:51:08;26.55;;;10.70;;
81396;SDS011;70852;49.908;8.126;2024-03-07T01:53:36;27.75;;;11.13;;
81396;SDS011;70852;49.908;8.126;2024-03-07T01:56:01;25.13;;;10.45;;
81396;SDS011;70852;49.908;8.126;2024-03-07T01:58:30;27.63;;;11.52;;
81396;SDS011;70852;49.908;8.126;2024-03-07T02:00:59;26.77;;;11.40;;
81396;SDS011;70852;49.908;8.126;2024-03-07T02:03:27;29.52;;;12.38;;
81396;SDS011;70852;49.908;8.126;2024-03-07T02:05:52;28.45;;;11.07;;
81396;SDS011;70852;49.908;8.126;2024-03-07T02:08:20;26.63;;;12.00;;
81396;SDS011;70852;49.908;8.126;2024-03-07T02:10:48;28.23;;;12.80;;
81396;SDS011;70852;49.908;8.126;2024-03-07T02:13:13;28.90;;;11.77;;
81396;SDS011;70852;49.908;8.126;2024-03-07T02:15:39;26.60;;;12.13;;
81396;SDS011;70852;49.908;8.126;2024-03-07T02:18:07;27.63;;;12.32;;
81396;SDS011;70852;49.908;8.126;2024-03-07T02:20:34;26.08;;;11.02;;
81396;SDS011;70852;49.908;8.126;2024-03-07T02:23:04;28.73;;;11.98;;
81396;SDS011;70852;49.908;8.126;2024-03-07T02:25:36;27.70;;;12.18;;
81396;SDS011;70852;49.908;8.126;2024-03-07T02:28:04;26.02;;;11.55;;
81396;SDS011;70852;49.908;8.126;2024-03-07T02:30:35;27.27;;;11.55;;
81396;SDS011;70852;49.908;8.126;2024-03-07T02:33:03;29.35;;;12.85;;
81396;SDS011;70852;49.908;8.126;2024-03-07T02:35:34;31.50;;;12.52;;
81396;SDS011;70852;49.908;8.126;2024-03-07T02:38:05;28.80;;;11.52;;
81396;SDS011;70852;49.908;8.126;2024-03-07T02:40:35;30.95;;;12.38;;
81396;SDS011;70852;49.908;8.126;2024-03-07T02:43:01;27.63;;;12.25;;
81396;SDS011;70852;49.908;8.126;2024-03-07T02:45:32;30.92;;;13.77;;
81396;SDS011;70852;49.908;8.126;2024-03-07T02:47:57;30.95;;;13.48;;
81396;SDS011;70852;49.908;8.126;2024-03-07T02:50:22;30.42;;;12.63;;
81396;SDS011;70852;49.908;8.126;2024-03-07T02:52:50;33.13;;;12.73;;
81396;SDS011;70852;49.908;8.126;2024-03-07T02:55:17;28.40;;;12.07;;
81396;SDS011;70852;49.908;8.126;2024-03-07T02:57:46;31.05;;;13.18;;
81396;SDS011;70852;49.908;8.126;2024-03-07T03:00:25;28.10;;;12.05;;
81396;SDS011;70852;49.908;8.126;2024-03-07T03:02:54;28.55;;;12.32;;
81396;SDS011;70852;49.908;8.126;2024-03-07T03:05:20;28.55;;;12.18;;
81396;SDS011;70852;49.908;8.126;2024-03-07T03:07:46;28.95;;;12.15;;
81396;SDS011;70852;49.908;8.126;2024-03-07T03:12:49;27.88;;;11.77;;
81396;SDS011;70852;49.908;8.126;2024-03-07T03:15:15;30.23;;;11.73;;
81396;SDS011;70852;49.908;8.126;2024-03-07T03:17:47;28.27;;;12.35;;
81396;SDS011;70852;49.908;8.126;2024-03-07T03:20:13;27.35;;;12.93;;
81396;SDS011;70852;49.908;8.126;2024-03-07T03:22:53;26.50;;;11.90;;
81396;SDS011;70852;49.908;8.126;2024-03-07T03:25:19;29.73;;;12.18;;
81396;SDS011;70852;49.908;8.126;2024-03-07T03:27:48;27.65;;;12.35;;
81396;SDS011;70852;49.908;8.126;2024-03-07T03:30:16;26.75;;;11.68;;
81396;SDS011;70852;49.908;8.126;2024-03-07T03:32:44;30.85;;;12.18;;
81396;SDS011;70852;49.908;8.126;2024-03-07T03:35:22;24.15;;;10.70;;
81396;SDS011;70852;49.908;8.126;2024-03-07T03:37:50;27.38;;;11.40;;
81396;SDS011;70852;49.908;8.126;2024-03-07T03:40:15;26.70;;;11.70;;
81396;SDS011;70852;49.908;8.126;2024-03-07T03:42:43;27.08;;;11.13;;
81396;SDS011;70852;49.908;8.126;2024-03-07T03:45:09;27.33;;;11.70;;
81396;SDS011;70852;49.908;8.126;2024-03-07T03:47:45;25.27;;;10.80;;
81396;SDS011;70852;49.908;8.126;2024-03-07T03:50:13;26.27;;;11.18;;
81396;SDS011;70852;49.908;8.126;2024-03-07T03:55:09;28.80;;;11.52;;
81396;SDS011;70852;49.908;8.126;2024-03-07T03:57:37;27.52;;;11.50;;
81396;SDS011;70852;49.908;8.126;2024-03-07T04:00:09;25.63;;;10.10;;
81396;SDS011;70852;49.908;8.126;2024-03-07T04:02:42;26.48;;;10.88;;
81396;SDS011;70852;49.908;8.126;2024-03-07T04:05:16;29.60;;;11.23;;
81396;SDS011;70852;49.908;8.126;2024-03-07T04:07:46;25.52;;;10.43;;
81396;SDS011;70852;49.908;8.126;2024-03-07T04:10:16;26.75;;;10.57;;
81396;SDS011;70852;49.908;8.126;2024-03-07T04:12:42;25.00;;;10.48;;
81396;SDS011;70852;49.908;8.126;2024-03-07T04:15:13;26.95;;;11.10;;
81396;SDS011;70852;49.908;8.126;2024-03-07T04:17:45;25.73;;;11.10;;
81396;SDS011;70852;49.908;8.126;2024-03-07T04:20:11;22.17;;;9.60;;
81396;SDS011;70852;49.908;8.126;2024-03-07T04:22:38;25.67;;;10.27;;
81396;SDS011;70852;49.908;8.126;2024-03-07T04:25:08;24.90;;;10.63;;
81396;SDS011;70852;49.908;8.126;2024-03-07T04:27:37;19.33;;;9.00;;
81396;SDS011;70852;49.908;8.126;2024-03-07T04:30:05;23.17;;;10.48;;
81396;SDS011;70852;49.908;8.126;2024-03-07T04:32:32;21.10;;;9.95;;
81396;SDS011;70852;49.908;8.126;2024-03-07T04:35:02;24.63;;;10.13;;
81396;SDS011;70852;49.908;8.126;2024-03-07T04:37:32;22.17;;;9.15;;
81396;SDS011;70852;49.908;8.126;2024-03-07T04:40:01;21.17;;;9.30;;
81396;SDS011;70852;49.908;8.126;2024-03-07T04:42:29;21.45;;;9.25;;
81396;SDS011;70852;49.908;8.126;2024-03-07T04:45:00;22.55;;;9.63;;
81396;SDS011;70852;49.908;8.126;2024-03-07T04:47:27;24.30;;;8.82;;
81396;SDS011;70852;49.908;8.126;2024-03-07T04:49:54;27.48;;;9.90;;
81396;SDS011;70852;49.908;8.126;2024-03-07T04:52:20;24.25;;;10.32;;
81396;SDS011;70852;49.908;8.126;2024-03-07T04:54:50;21.55;;;9.90;;
81396;SDS011;70852;49.908;8.126;2024-03-07T04:57:15;23.77;;;9.63;;
81396;SDS011;70852;49.908;8.126;2024-03-07T04:59:41;24.67;;;9.40;;
81396;SDS011;70852;49.908;8.126;2024-03-07T05:02:08;21.83;;;9.63;;
81396;SDS011;70852;49.908;8.126;2024-03-07T05:04:34;22.10;;;9.73;;
81396;SDS011;70852;49.908;8.126;2024-03-07T05:06:59;23.88;;;9.80;;
81396;SDS011;70852;49.908;8.126;2024-03-07T05:09:24;24.15;;;9.25;;
81396;SDS011;70852;49.908;8.126;2024-03-07T05:11:53;20.50;;;9.15;;
81396;SDS011;70852;49.908;8.126;2024-03-07T05:14:25;21.88;;;8.98;;
81396;SDS011;70852;49.908;8.126;2024-03-07T05:16:55;21.23;;;8.88;;
81396;SDS011;70852;49.908;8.126;2024-03-07T05:19:36;21.55;;;8.70;;
81396;SDS011;70852;49.908;8.126;2024-03-07T05:22:03;19.65;;;8.88;;
81396;SDS011;70852;49.908;8.126;2024-03-07T05:24:32;20.30;;;8.60;;
81396;SDS011;70852;49.908;8.126;2024-03-07T05:26:58;19.73;;;8.80;;
81396;SDS011;70852;49.908;8.126;2024-03-07T05:29:23;20.17;;;9.07;;
81396;SDS011;70852;49.908;8.126;2024-03-07T05:31:54;21.30;;;9.25;;
81396;SDS011;70852;49.908;8.126;2024-03-07T05:34:25;20.27;;;9.18;;
81396;SDS011;70852;49.908;8.126;2024-03-07T05:36:58;23.13;;;9.38;;
81396;SDS011;70852;49.908;8.126;2024-03-07T05:39:23;21.63;;;9.25;;
81396;SDS011;70852;49.908;8.126;2024-03-07T05:41:51;22.45;;;8.80;;
81396;SDS011;70852;49.908;8.126;2024-03-07T05:44:16;19.20;;;8.82;;
81396;SDS011;70852;49.908;8.126;2024-03-07T05:46:44;23.38;;;9.93;;
81396;SDS011;70852;49.908;8.126;2024-03-07T05:49:15;20.00;;;8.43;;
81396;SDS011;70852;49.908;8.126;2024-03-07T05:51:46;24.35;;;8.95;;
81396;SDS011;70852;49.908;8.126;2024-03-07T05:54:12;23.23;;;9.45;;
81396;SDS011;70852;49.908;8.126;2024-03-07T05:56:38;23.35;;;9.05;;
81396;SDS011;70852;49.908;8.126;2024-03-07T05:59:07;19.80;;;9.23;;
81396;SDS011;70852;49.908;8.126;2024-03-07T06:01:34;22.70;;;9.68;;
81396;SDS011;70852;49.908;8.126;2024-03-07T06:04:00;19.58;;;9.00;;
81396;SDS011;70852;49.908;8.126;2024-03-07T06:06:27;23.42;;;10.10;;
81396;SDS011;70852;49.908;8.126;2024-03-07T06:08:52;23.95;;;8.95;;
81396;SDS011;70852;49.908;8.126;2024-03-07T06:11:20;21.52;;;9.57;;
81396;SDS011;70852;49.908;8.126;2024-03-07T06:13:51;21.58;;;8.80;;
81396;SDS011;70852;49.908;8.126;2024-03-07T06:16:16;21.25;;;9.35;;
81396;SDS011;70852;49.908;8.126;2024-03-07T06:18:43;20.10;;;9.00;;
81396;SDS011;70852;49.908;8.126;2024-03-07T06:21:09;19.77;;;8.57;;
81396;SDS011;70852;49.908;8.126;2024-03-07T06:23:39;23.70;;;9.43;;
81396;SDS011;70852;49.908;8.126;2024-03-07T06:26:05;21.35;;;9.18;;
81396;SDS011;70852;49.908;8.126;2024-03-07T06:28:38;20.60;;;8.43;;
81396;SDS011;70852;49.908;8.126;2024-03-07T06:31:04;20.55;;;8.93;;
81396;SDS011;70852;49.908;8.126;2024-03-07T06:33:32;23.08;;;9.13;;
81396;SDS011;70852;49.908;8.126;2024-03-07T06:35:58;24.48;;;9.13;;
81396;SDS011;70852;49.908;8.126;2024-03-07T06:38:23;23.27;;;9.57;;
81396;SDS011;70852;49.908;8.126;2024-03-07T06:40:53;24.77;;;9.65;;
81396;SDS011;70852;49.908;8.126;2024-03-07T06:43:18;26.88;;;9.90;;
81396;SDS011;70852;49.908;8.126;2024-03-07T06:45:48;23.10;;;9.82;;
81396;SDS011;70852;49.908;8.126;2024-03-07T06:48:16;23.33;;;9.88;;
81396;SDS011;70852;49.908;8.126;2024-03-07T06:50:42;23.15;;;9.23;;
81396;SDS011;70852;49.908;8.126;2024-03-07T06:53:09;23.83;;;10.63;;
81396;SDS011;70852;49.908;8.126;2024-03-07T06:55:35;23.40;;;10.18;;
81396;SDS011;70852;49.908;8.126;2024-03-07T06:58:02;20.92;;;9.27;;
81396;SDS011;70852;49.908;8.126;2024-03-07T07:00:30;21.02;;;9.63;;
81396;SDS011;70852;49.908;8.126;2024-03-07T07:03:02;23.52;;;9.75;;
81396;SDS011;70852;49.908;8.126;2024-03-07T07:05:30;22.10;;;9.38;;
81396;SDS011;70852;49.908;8.126;2024-03-07T07:07:58;20.55;;;10.13;;
81396;SDS011;70852;49.908;8.126;2024-03-07T07:10:24;24.23;;;9.75;;
81396;SDS011;70852;49.908;8.126;2024-03-07T07:12:52;20.25;;;9.20;;
81396;SDS011;70852;49.908;8.126;2024-03-07T07:15:20;19.40;;;9.00;;
81396;SDS011;70852;49.908;8.126;2024-03-07T07:17:46;17.92;;;8.65;;
81396;SDS011;70852;49.908;8.126;2024-03-07T07:20:12;17.38;;;9.02;;
81396;SDS011;70852;49.908;8.126;2024-03-07T07:22:41;20.40;;;8.82;;
81396;SDS011;70852;49.908;8.126;2024-03-07T07:25:07;17.25;;;8.30;;
81396;SDS011;70852;49.908;8.126;2024-03-07T07:27:40;20.20;;;9.15;;
81396;SDS011;70852;49.908;8.126;2024-03-07T07:30:11;17.65;;;8.50;;
81396;SDS011;70852;49.908;8.126;2024-03-07T07:32:37;19.83;;;9.48;;
81396;SDS011;70852;49.908;8.126;2024-03-07T07:35:05;19.63;;;9.38;;
81396;SDS011;70852;49.908;8.126;2024-03-07T07:37:40;19.05;;;9.25;;
81396;SDS011;70852;49.908;8.126;2024-03-07T07:40:07;18.45;;;8.45;;
81396;SDS011;70852;49.908;8.126;2024-03-07T07:42:45;19.23;;;8.60;;
81396;SDS011;70852;49.908;8.126;2024-03-07T07:45:14;20.67;;;8.98;;
81396;SDS011;70852;49.908;8.126;2024-03-07T07:47:43;19.13;;;8.88;;
81396;SDS011;70852;49.908;8.126;2024-03-07T07:50:17;19.02;;;8.63;;
81396;SDS011;70852;49.908;8.126;2024-03-07T07:52:55;23.30;;;9.48;;
81396;SDS011;70852;49.908;8.126;2024-03-07T07:57:55;18.38;;;8.75;;
81396;SDS011;70852;49.908;8.126;2024-03-07T08:00:24;19.95;;;9.20;;
81396;SDS011;70852;49.908;8.126;2024-03-07T08:05:26;18.90;;;8.70;;
81396;SDS011;70852;49.908;8.126;2024-03-07T08:07:56;16.85;;;8.77;;
81396;SDS011;70852;49.908;8.126;2024-03-07T08:10:24;19.17;;;9.32;;
81396;SDS011;70852;49.908;8.126;2024-03-07T08:12:50;19.58;;;8.43;;
81396;SDS011;70852;49.908;8.126;2024-03-07T08:15:21;18.15;;;8.55;;
81396;SDS011;70852;49.908;8.126;2024-03-07T08:17:49;19.38;;;8.73;;
81396;SDS011;70852;49.908;8.126;2024-03-07T08:20:18;16.25;;;8.20;;
81396;SDS011;70852;49.908;8.126;2024-03-07T08:22:50;21.08;;;8.40;;
81396;SDS011;70852;49.908;8.126;2024-03-07T08:25:20;16.85;;;8.23;;
81396;SDS011;70852;49.908;8.126;2024-03-07T08:27:48;19.65;;;8.40;;
81396;SDS011;70852;49.908;8.126;2024-03-07T08:30:14;20.92;;;9.30;;
81396;SDS011;70852;49.908;8.126;2024-03-07T08:32:50;21.52;;;9.50;;
81396;SDS011;70852;49.908;8.126;2024-03-07T08:35:20;17.75;;;8.73;;
81396;SDS011;70852;49.908;8.126;2024-03-07T08:37:47;17.88;;;8.70;;
81396;SDS011;70852;49.908;8.126;2024-03-07T08:40:26;16.40;;;8.13;;
81396;SDS011;70852;49.908;8.126;2024-03-07T08:42:56;17.20;;;8.23;;
81396;SDS011;70852;49.908;8.126;2024-03-07T08:45:24;15.00;;;8.20;;
81396;SDS011;70852;49.908;8.126;2024-03-07T08:47:51;14.82;;;8.10;;
81396;SDS011;70852;49.908;8.126;2024-03-07T08:50:19;14.52;;;8.18;;
81396;SDS011;70852;49.908;8.126;2024-03-07T08:52:45;15.18;;;8.23;;
81396;SDS011;70852;49.908;8.126;2024-03-07T08:55:13;15.73;;;8.10;;
81396;SDS011;70852;49.908;8.126;2024-03-07T08:57:42;15.25;;;8.05;;
81396;SDS011;70852;49.908;8.126;2024-03-07T09:00:11;15.65;;;8.68;;
81396;SDS011;70852;49.908;8.126;2024-03-07T09:02:47;16.80;;;8.30;;
81396;SDS011;70852;49.908;8.126;2024-03-07T09:05:23;17.10;;;9.18;;
81396;SDS011;70852;49.908;8.126;2024-03-07T09:07:52;15.85;;;8.82;;
81396;SDS011;70852;49.908;8.126;2024-03-07T09:10:20;16.48;;;8.57;;
81396;SDS011;70852;49.908;8.126;2024-03-07T09:12:46;15.88;;;9.00;;
81396;SDS011;70852;49.908;8.126;2024-03-07T09:15:17;15.65;;;8.95;;
81396;SDS011;70852;49.908;8.126;2024-03-07T09:20:14;14.70;;;8.45;;
81396;SDS011;70852;49.908;8.126;2024-03-07T09:22:40;16.20;;;9.00;;
81396;SDS011;70852;49.908;8.126;2024-03-07T09:25:09;14.68;;;9.40;;
81396;SDS011;70852;49.908;8.126;2024-03-07T09:27:45;13.25;;;8.45;;
81396;SDS011;70852;49.908;8.126;2024-03-07T09:30:11;12.45;;;7.78;;
81396;SDS011;70852;49.908;8.126;2024-03-07T09:32:42;15.48;;;8.90;;
81396;SDS011;70852;49.908;8.126;2024-03-07T09:35:10;14.52;;;9.23;;
81396;SDS011;70852;49.908;8.126;2024-03-07T09:37:39;17.13;;;8.57;;
81396;SDS011;70852;49.908;8.126;2024-03-07T09:40:08;14.18;;;8.80;;
81396;SDS011;70852;49.908;8.126;2024-03-07T09:42:37;13.20;;;8.68;;
81396;SDS011;70852;49.908;8.126;2024-03-07T09:45:08;14.77;;;8.60;;
81396;SDS011;70852;49.908;8.126;2024-03-07T09:47:41;15.57;;;8.38;;
81396;SDS011;70852;49.908;8.126;2024-03-07T09:50:11;14.07;;;8.48;;
81396;SDS011;70852;49.908;8.126;2024-03-07T09:52:37;14.40;;;8.32;;
81396;SDS011;70852;49.908;8.126;2024-03-07T09:55:04;15.32;;;8.70;;
81396;SDS011;70852;49.908;8.126;2024-03-07T09:57:33;14.48;;;8.38;;
81396;SDS011;70852;49.908;8.126;2024-03-07T10:00:03;13.60;;;8.15;;
81396;SDS011;70852;49.908;8.126;2024-03-07T10:02:31;13.38;;;7.90;;
81396;SDS011;70852;49.908;8.126;2024-03-07T10:04:59;14.75;;;8.85;;
81396;SDS011;70852;49.908;8.126;2024-03-07T10:07:27;13.65;;;8.40;;
81396;SDS011;70852;49.908;8.126;2024-03-07T10:09:57;17.25;;;9.15;;
81396;SDS011;70852;49.908;8.126;2024-03-07T10:12:25;14.65;;;9.15;;
81396;SDS011;70852;49.908;8.126;2024-03-07T10:14:53;17.15;;;9.15;;
81396;SDS011;70852;49.908;8.126;2024-03-07T10:17:24;13.10;;;8.50;;
81396;SDS011;70852;49.908;8.126;2024-03-07T10:19:52;14.98;;;9.07;;
81396;SDS011;70852;49.908;8.126;2024-03-07T10:22:19;14.65;;;9.00;;
81396;SDS011;70852;49.908;8.126;2024-03-07T10:27:17;18.05;;;9.50;;
81396;SDS011;70852;49.908;8.126;2024-03-07T10:29:49;16.08;;;9.10;;
81396;SDS011;70852;49.908;8.126;2024-03-07T10:32:20;15.32;;;8.80;;
81396;SDS011;70852;49.908;8.126;2024-03-07T10:34:51;16.27;;;8.90;;
81396;SDS011;70852;49.908;8.126;2024-03-07T10:37:20;16.38;;;8.85;;
81396;SDS011;70852;49.908;8.126;2024-03-07T10:39:50;17.60;;;9.05;;
81396;SDS011;70852;49.908;8.126;2024-03-07T10:42:17;15.00;;;8.43;;
81396;SDS011;70852;49.908;8.126;2024-03-07T10:44:44;18.10;;;8.98;;
81396;SDS011;70852;49.908;8.126;2024-03-07T10:47:15;18.45;;;9.13;;
81396;SDS011;70852;49.908;8.126;2024-03-07T10:52:40;16.48;;;8.23;;
81396;SDS011;70852;49.908;8.126;2024-03-07T11:01:02;16.45;;;7.85;;
81396;SDS011;70852;49.908;8.126;2024-03-07T11:03:34;17.98;;;8.38;;
81396;SDS011;70852;49.908;8.126;2024-03-07T11:06:00;16.80;;;8.63;;
81396;SDS011;70852;49.908;8.126;2024-03-07T11:08:32;17.35;;;8.45;;
81396;SDS011;70852;49.908;8.126;2024-03-07T11:10:59;17.80;;;8.98;;
81396;SDS011;70852;49.908;8.126;2024-03-07T11:13:29;17.42;;;8.40;;
81396;SDS011;70852;49.908;8.126;2024-03-07T11:15:55;18.25;;;9.23;;
81396;SDS011;70852;49.908;8.126;2024-03-07T11:18:25;16.73;;;8.98;;
81396;SDS011;70852;49.908;8.126;2024-03-07T11:20:51;17.85;;;9.75;;
81396;SDS011;70852;49.908;8.126;2024-03-07T11:23:29;15.50;;;9.38;;
81396;SDS011;70852;49.908;8.126;2024-03-07T11:26:10;16.92;;;8.63;;
81396;SDS011;70852;49.908;8.126;2024-03-07T11:28:40;16.17;;;9.48;;
81396;SDS011;70852;49.908;8.126;2024-03-07T11:31:13;16.10;;;9.32;;
81396;SDS011;70852;49.908;8.126;2024-03-07T11:34:17;16.38;;;10.80;;
81396;SDS011;70852;49.908;8.126;2024-03-07T11:36:48;16.40;;;8.82;;
81396;SDS011;70852;49.908;8.126;2024-03-07T11:39:39;18.40;;;10.13;;
81396;SDS011;70852;49.908;8.126;2024-03-07T11:44:50;14.23;;;9.13;;
81396;SDS011;70852;49.908;8.126;2024-03-07T11:47:16;18.73;;;9.95;;
81396;SDS011;70852;49.908;8.126;2024-03-07T11:49:43;15.07;;;9.40;;
81396;SDS011;70852;49.908;8.126;2024-03-07T11:52:11;15.73;;;9.55;;
81396;SDS011;70852;49.908;8.126;2024-03-07T11:54:38;15.27;;;9.10;;
81396;SDS011;70852;49.908;8.126;2024-03-07T11:57:20;15.73;;;8.73;;
81396;SDS011;70852;49.908;8.126;2024-03-07T11:59:57;15.52;;;8.80;;
81396;SDS011;70852;49.908;8.126;2024-03-07T12:02:25;17.63;;;8.85;;
81396;SDS011;70852;49.908;8.126;2024-03-07T12:04:51;17.23;;;9.07;;
81396;SDS011;70852;49.908;8.126;2024-03-07T12:07:16;15.82;;;8.60;;
81396;SDS011;70852;49.908;8.126;2024-03-07T12:09:50;15.30;;;8.57;;
81396;SDS011;70852;49.908;8.126;2024-03-07T12:12:20;17.42;;;8.65;;
81396;SDS011;70852;49.908;8.126;2024-03-07T12:14:49;15.75;;;8.90;;
81396;SDS011;70852;49.908;8.126;2024-03-07T12:17:17;16.40;;;8.85;;
81396;SDS011;70852;49.908;8.126;2024-03-07T12:19:45;14.95;;;8.57;;
81396;SDS011;70852;49.908;8.126;2024-03-07T12:22:16;15.13;;;9.00;;
81396;SDS011;70852;49.908;8.126;2024-03-07T12:24:58;15.52;;;9.30;;
81396;SDS011;70852;49.908;8.126;2024-03-07T12:27:29;17.45;;;8.02;;
81396;SDS011;70852;49.908;8.126;2024-03-07T12:29:57;14.75;;;8.13;;
81396;SDS011;70852;49.908;8.126;2024-03-07T12:32:29;16.92;;;8.18;;
81396;SDS011;70852;49.908;8.126;2024-03-07T12:37:24;22.33;;;8.93;;
81396;SDS011;70852;49.908;8.126;2024-03-07T12:39:54;14.27;;;7.53;;
81396;SDS011;70852;49.908;8.126;2024-03-07T12:42:28;17.27;;;7.93;;
81396;SDS011;70852;49.908;8.126;2024-03-07T12:44:56;19.27;;;8.90;;
81396;SDS011;70852;49.908;8.126;2024-03-07T12:47:24;18.10;;;8.63;;
81396;SDS011;70852;49.908;8.126;2024-03-07T12:49:51;16.27;;;8.10;;
81396;SDS011;70852;49.908;8.126;2024-03-07T12:52:18;16.42;;;8.35;;
81396;SDS011;70852;49.908;8.126;2024-03-07T12:54:44;14.77;;;7.85;;
81396;SDS011;70852;49.908;8.126;2024-03-07T12:57:12;18.92;;;7.55;;
81396;SDS011;70852;49.908;8.126;2024-03-07T12:59:37;16.90;;;8.40;;
81396;SDS011;70852;49.908;8.126;2024-03-07T13:02:06;14.93;;;7.43;;
81396;SDS011;70852;49.908;8.126;2024-03-07T13:04:38;14.38;;;7.40;;
81396;SDS011;70852;49.908;8.126;2024-03-07T13:07:04;12.75;;;7.30;;
81396;SDS011;70852;49.908;8.126;2024-03-07T13:09:33;13.43;;;6.97;;
81396;SDS011;70852;49.908;8.126;2024-03-07T13:12:03;14.68;;;7.40;;
81396;SDS011;70852;49.908;8.126;2024-03-07T13:14:31;14.93;;;7.03;;
81396;SDS011;70852;49.908;8.126;2024-03-07T13:17:02;14.13;;;7.53;;
81396;SDS011;70852;49.908;8.126;2024-03-07T13:19:39;14.88;;;7.38;;
81396;SDS011;70852;49.908;8.126;2024-03-07T13:22:04;14.65;;;7.78;;
81396;SDS011;70852;49.908;8.126;2024-03-07T13:24:31;14.68;;;7.00;;
81396;SDS011;70852;49.908;8.126;2024-03-07T13:26:57;13.73;;;7.50;;
81396;SDS011;70852;49.908;8.126;2024-03-07T13:29:22;12.43;;;6.07;;
81396;SDS011;70852;49.908;8.126;2024-03-07T13:31:49;14.43;;;7.22;;
81396;SDS011;70852;49.908;8.126;2024-03-07T13:34:16;14.23;;;7.60;;
81396;SDS011;70852;49.908;8.126;2024-03-07T13:36:42;13.52;;;6.80;;
81396;SDS011;70852;49.908;8.126;2024-03-07T13:39:13;13.93;;;6.97;;
81396;SDS011;70852;49.908;8.126;2024-03-07T13:41:39;15.85;;;6.97;;
81396;SDS011;70852;49.908;8.126;2024-03-07T13:44:15;16.15;;;7.03;;
81396;SDS011;70852;49.908;8.126;2024-03-07T13:46:46;13.80;;;6.95;;
81396;SDS011;70852;49.908;8.126;2024-03-07T13:49:12;16.50;;;6.82;;
81396;SDS011;70852;49.908;8.126;2024-03-07T13:51:41;14.88;;;6.45;;
81396;SDS011;70852;49.908;8.126;2024-03-07T13:54:18;13.45;;;6.10;;
81396;SDS011;70852;49.908;8.126;2024-03-07T13:59:49;16.83;;;6.57;;
81396;SDS011;70852;49.908;8.126;2024-03-07T14:25:42;11.63;;;6.03;;
81396;SDS011;70852;49.908;8.126;2024-03-07T14:28:33;10.75;;;5.47;;
81396;SDS011;70852;49.908;8.126;2024-03-07T14:31:16;10.93;;;5.13;;
81396;SDS011;70852;49.908;8.126;2024-03-07T14:33:48;12.43;;;5.43;;
81396;SDS011;70852;49.908;8.126;2024-03-07T14:36:16;11.07;;;5.50;;
81396;SDS011;70852;49.908;8.126;2024-03-07T14:38:53;11.50;;;6.20;;
81396;SDS011;70852;49.908;8.126;2024-03-07T14:44:07;11.45;;;5.45;;
81396;SDS011;70852;49.908;8.126;2024-03-07T14:46:35;10.40;;;4.90;;
81396;SDS011;70852;49.908;8.126;2024-03-07T14:49:01;10.73;;;5.78;;
81396;SDS011;70852;49.908;8.126;2024-03-07T14:51:30;10.10;;;5.00;;
81396;SDS011;70852;49.908;8.126;2024-03-07T14:53:57;9.10;;;5.50;;
81396;SDS011;70852;49.908;8.126;2024-03-07T14:56:23;11.25;;;5.15;;
81396;SDS011;70852;49.908;8.126;2024-03-07T14:58:48;12.77;;;5.78;;
81396;SDS011;70852;49.908;8.126;2024-03-07T15:01:13;13.80;;;6.05;;
81396;SDS011;70852;49.908;8.126;2024-03-07T15:03:39;11.40;;;5.63;;
81396;SDS011;70852;49.908;8.126;2024-03-07T15:06:10;12.77;;;5.38;;
81396;SDS011;70852;49.908;8.126;2024-03-07T15:08:42;11.32;;;5.68;;
81396;SDS011;70852;49.908;8.126;2024-03-07T15:11:09;10.07;;;5.35;;
81396;SDS011;70852;49.908;8.126;2024-03-07T15:13:44;10.77;;;5.78;;
81396;SDS011;70852;49.908;8.126;2024-03-07T15:16:13;12.43;;;5.38;;
81396;SDS011;70852;49.908;8.126;2024-03-07T15:18:40;14.13;;;6.35;;
81396;SDS011;70852;49.908;8.126;2024-03-07T15:21:08;8.88;;;5.00;;
81396;SDS011;70852;49.908;8.126;2024-03-07T15:23:34;9.35;;;5.15;;
81396;SDS011;70852;49.908;8.126;2024-03-07T15:26:02;12.10;;;5.78;;
81396;SDS011;70852;49.908;8.126;2024-03-07T15:28:31;10.57;;;5.35;;
81396;SDS011;70852;49.908;8.126;2024-03-07T15:30:57;10.38;;;5.40;;
81396;SDS011;70852;49.908;8.126;2024-03-07T15:33:31;12.02;;;5.45;;
81396;SDS011;70852;49.908;8.126;2024-03-07T15:35:59;11.68;;;5.45;;
81396;SDS011;70852;49.908;8.126;2024-03-07T15:38:27;10.30;;;4.97;;
81396;SDS011;70852;49.908;8.126;2024-03-07T15:41:01;13.43;;;5.88;;